Time;durP1;ratioP1;P1;durP2;ratioP2;P2;SDS_P1;SDS_P2;PMS_P1;PMS_P2;Temp;Humidity;BMP_temperature;BMP_pressure;BME280_temperature;BME280_humidity;BME280_pressure;Samples;Min_cycle;Max_cycle;Signal;HPM_P1;HPM_P2
2021/10/24 02:07:55;;;;;;;4.38;2.38;;;9.70;99.90;;;;;;3198730;23;20306;-95
2021/10/24 02:13:10;;;;;;;8.05;1.70;;;9.70;99.90;;;;;;5343712;23;20043;-91
2021/10/24 02:20:53;;;;;;;3.42;1.30;;;9.70;99.90;;;;;;5471604;23;20061;-95
2021/10/24 02:28:55;;;;;;;5.03;1.70;;;9.70;99.90;;;;;;5110969;23;20063;-95
2021/10/24 02:31:21;;;;;;;6.65;1.77;;;9.70;99.90;;;;;;5114758;23;20078;-96
2021/10/24 02:33:47;;;;;;;3.53;1.40;;;9.70;99.90;;;;;;4998283;28;20090;-94
2021/10/24 02:36:14;;;;;;;5.90;1.17;;;9.70;99.90;;;;;;5482235;23;20046;-96
2021/10/24 02:38:40;;;;;;;5.57;1.55;;;9.70;99.90;;;;;;4979169;28;20137;-94
2021/10/24 02:46:20;;;;;;;4.30;1.40;;;9.70;99.90;;;;;;5446355;23;20074;-95
2021/10/24 04:37:06;;;;;;;;;;;;;;;;;;;;;
2021/10/24 05:16:16;;;;;;;7.45;1.70;;;9.60;99.90;;;;;;4879428;23;20055;-93
2021/10/24 05:18:46;;;;;;;5.90;2.22;;;9.60;99.90;;;;;;4916070;29;20052;-96
2021/10/24 05:21:11;;;;;;;4.97;1.83;;;9.60;99.90;;;;;;4900081;29;20023;-94
2021/10/24 05:26:18;;;;;;;3.75;1.73;;;9.50;99.90;;;;;;5520289;23;19922;-96
2021/10/24 05:31:39;;;;;;;5.47;1.50;;;9.60;99.90;;;;;;4979071;23;20063;-96
2021/10/24 05:34:07;;;;;;;5.80;1.75;;;9.60;99.90;;;;;;4980627;28;20039;-95
2021/10/24 05:36:34;;;;;;;10.20;2.03;;;9.60;99.90;;;;;;4996313;28;20061;-95
2021/10/24 05:41:35;;;;;;;6.45;1.75;;;9.60;99.90;;;;;;5114879;23;20043;-96
2021/10/24 05:58:06;;;;;;;4.57;1.27;;;9.60;99.90;;;;;;5316186;23;20042;-95
2021/10/24 07:03:23;;;;;;;2.65;1.55;;;9.60;99.90;;;;;;4526095;23;20037;-94
2021/10/24 07:05:49;;;;;;;6.18;2.10;;;9.50;99.90;;;;;;5040459;23;20063;-96
2021/10/24 07:08:18;;;;;;;6.50;1.55;;;9.60;99.90;;;;;;4980233;28;20020;-94
2021/10/24 07:30:49;;;;;;;6.68;1.75;;;9.60;99.90;;;;;;4940152;29;20086;-96
2021/10/24 07:33:15;;;;;;;5.20;2.10;;;9.50;99.90;;;;;;4941751;28;20040;-96
2021/10/24 07:38:38;;;;;;;5.15;2.45;;;9.60;99.90;;;;;;5373407;23;20383;31
2021/10/24 07:41:04;;;;;;;7.50;2.00;;;9.50;99.90;;;;;;4937305;29;20099;-95
2021/10/24 07:43:30;;;;;;;6.07;1.95;;;9.60;99.90;;;;;;4940824;29;20032;-95
2021/10/24 07:46:01;;;;;;;6.68;1.98;;;9.60;99.90;;;;;;4925490;29;20020;-96
2021/10/24 07:48:28;;;;;;;7.07;1.90;;;9.60;99.90;;;;;;5058043;23;20066;-96
2021/10/24 07:50:58;;;;;;;5.93;1.90;;;9.60;99.90;;;;;;4980281;28;20010;-95
2021/10/24 07:53:26;;;;;;;11.65;2.03;;;9.60;99.90;;;;;;4978707;29;20015;-96
2021/10/24 07:55:53;;;;;;;4.45;1.45;;;9.60;99.90;;;;;;4962281;29;20027;-95
2021/10/24 07:58:20;;;;;;;3.95;1.85;;;9.60;99.90;;;;;;4976773;29;20015;-96
2021/10/24 08:00:48;;;;;;;6.32;1.95;;;9.60;99.90;;;;;;4977587;28;20023;-95
2021/10/24 08:03:14;;;;;;;2.90;1.13;;;9.60;99.90;;;;;;4961966;29;20027;-95
2021/10/24 08:05:40;;;;;;;4.18;1.95;;;9.60;99.90;;;;;;4962466;29;20039;-94
2021/10/24 08:08:06;;;;;;;10.13;1.85;;;9.60;99.90;;;;;;4960231;29;20031;-95
2021/10/24 08:10:35;;;;;;;5.35;1.77;;;9.60;99.90;;;;;;4961124;29;20062;-96
2021/10/24 08:13:01;;;;;;;6.35;2.10;;;9.70;99.90;;;;;;4978596;28;20019;-95
2021/10/24 08:52:13;;;;;;;5.88;2.53;;;9.80;99.90;;;;;;4991023;23;20128;-95
2021/10/24 08:54:44;;;;;;;7.40;2.13;;;9.90;99.90;;;;;;4943632;29;20015;-96
2021/10/24 09:00:00;;;;;;;5.20;2.20;;;9.90;99.90;;;;;;5078522;23;20053;-95
2021/10/24 09:24:25;;;;;;;8.18;2.25;;;10.30;99.90;;;;;;4992041;28;20066;-96
2021/10/24 09:26:53;;;;;;;8.02;2.45;;;10.30;99.90;;;;;;4994290;28;20023;-96
2021/10/24 09:29:19;;;;;;;3.72;1.42;;;10.30;99.90;;;;;;4977354;28;20039;-95
2021/10/24 09:31:53;;;;;;;2.70;1.27;;;10.40;99.90;;;;;;4976494;28;20038;-94
2021/10/24 09:34:23;;;;;;;7.40;2.45;;;10.30;99.90;;;;;;4990308;28;20023;-94
2021/10/24 09:37:02;;;;;;;4.75;1.80;;;10.30;99.90;;;;;;4958513;28;20081;-96
2021/10/24 09:39:30;;;;;;;10.95;3.35;;;10.40;99.90;;;;;;4960667;28;20275;-94
2021/10/24 09:42:21;;;;;;;4.05;2.58;;;10.30;99.90;;;;;;4977400;28;20035;-93
2021/10/24 09:45:13;;;;;;;4.70;2.42;;;10.30;99.90;;;;;;5007768;28;20033;-95
2021/10/24 09:47:41;;;;;;;3.53;1.70;;;10.30;99.90;;;;;;5004619;28;20030;-95
2021/10/24 09:50:18;;;;;;;8.73;1.92;;;10.30;99.90;;;;;;4998187;28;20045;-95
2021/10/24 09:52:44;;;;;;;6.00;2.35;;;10.30;99.90;;;;;;5018330;28;20116;-93
2021/10/24 09:55:17;;;;;;;9.50;2.60;;;10.30;99.90;;;;;;5003928;28;20045;-95
2021/10/24 09:57:44;;;;;;;6.95;2.00;;;10.30;99.90;;;;;;4996971;28;20034;-95
2021/10/24 10:00:11;;;;;;;10.85;2.10;;;10.30;99.90;;;;;;4997696;28;20125;-95
2021/10/24 10:02:39;;;;;;;11.93;3.13;;;10.30;99.90;;;;;;5013333;28;20026;-94
2021/10/24 10:05:08;;;;;;;10.07;2.63;;;10.30;99.90;;;;;;4997434;28;20033;-94
2021/10/24 10:07:37;;;;;;;11.13;2.92;;;10.30;99.90;;;;;;5016544;28;20030;-94
2021/10/24 10:10:03;;;;;;;10.38;2.72;;;10.40;99.90;;;;;;4998225;28;20041;-94
2021/10/24 10:12:34;;;;;;;10.10;2.20;;;10.40;99.90;;;;;;4998063;28;20042;-94
2021/10/24 10:15:05;;;;;;;7.47;2.17;;;10.50;99.90;;;;;;5014098;28;20027;-95
2021/10/24 10:17:32;;;;;;;8.73;2.22;;;10.50;99.90;;;;;;5015405;28;20052;-95
2021/10/24 10:20:18;;;;;;;7.25;2.78;;;10.60;99.90;;;;;;4997354;28;20037;-96
2021/10/24 10:23:06;;;;;;;7.03;2.75;;;10.60;99.90;;;;;;4993730;28;20460;-95
2021/10/24 10:25:35;;;;;;;12.60;3.20;;;10.60;99.90;;;;;;4992911;28;20046;-94
2021/10/24 10:28:02;;;;;;;6.32;3.42;;;10.70;99.90;;;;;;4975960;28;20034;-95
2021/10/24 10:30:35;;;;;;;12.02;3.20;;;10.70;99.90;;;;;;4993870;28;20045;-93
2021/10/24 10:33:04;;;;;;;11.40;5.15;;;10.70;99.90;;;;;;4990543;28;20027;-95
2021/10/24 10:35:30;;;;;;;11.88;3.53;;;10.70;99.90;;;;;;4992133;28;20022;-95
2021/10/24 10:37:59;;;;;;;8.77;3.65;;;10.80;99.90;;;;;;4994790;28;20038;-94
2021/10/24 10:40:30;;;;;;;8.63;3.50;;;10.80;99.90;;;;;;4994892;28;20003;-96
2021/10/24 10:43:17;;;;;;;10.13;2.83;;;10.80;99.90;;;;;;4994979;28;20027;-94
2021/10/24 10:48:46;;;;;;;12.88;2.97;;;10.80;99.90;;;;;;5245809;23;20058;-94
2021/10/24 10:51:25;;;;;;;11.27;3.75;;;10.90;99.90;;;;;;4994499;28;20124;-95
2021/10/24 10:53:55;;;;;;;7.22;2.80;;;10.90;99.90;;;;;;4979741;28;20031;-95
2021/10/24 10:56:23;;;;;;;9.20;2.75;;;10.90;99.90;;;;;;4976556;29;20042;-96
2021/10/24 10:59:01;;;;;;;12.80;5.45;;;10.90;99.90;;;;;;4989204;28;20055;-95
2021/10/24 11:01:28;;;;;;;7.43;2.65;;;10.90;99.90;;;;;;4974744;28;20042;-95
2021/10/24 11:04:08;;;;;;;9.40;2.90;;;10.90;99.90;;;;;;4990823;28;20035;-95
2021/10/24 11:06:36;;;;;;;5.90;2.40;;;10.90;99.90;;;;;;4989738;28;20103;-95
2021/10/24 11:09:06;;;;;;;7.63;2.40;;;10.90;99.90;;;;;;4986955;28;20106;-94
2021/10/24 11:11:44;;;;;;;12.95;3.85;;;10.80;99.90;;;;;;4972503;29;20023;-94
2021/10/24 11:14:16;;;;;;;10.90;2.80;;;10.80;99.90;;;;;;4987411;28;20027;-95
2021/10/24 11:16:52;;;;;;;8.95;3.03;;;10.80;99.90;;;;;;4974550;28;20039;-95
2021/10/24 11:19:37;;;;;;;11.38;5.07;;;10.70;99.90;;;;;;4974553;28;20087;-96
2021/10/24 11:22:12;;;;;;;10.75;3.47;;;10.70;99.90;;;;;;4986409;28;20031;-94
2021/10/24 11:24:55;;;;;;;11.00;2.83;;;10.70;99.90;;;;;;4969222;29;20572;-96
2021/10/24 11:27:33;;;;;;;13.43;4.55;;;10.70;99.90;;;;;;4969069;29;20060;-94
2021/10/24 11:30:06;;;;;;;18.40;6.60;;;10.70;99.90;;;;;;4972631;29;20027;-95
2021/10/24 11:32:37;;;;;;;12.82;4.05;;;10.70;99.90;;;;;;4976581;28;20043;-94
2021/10/24 11:35:09;;;;;;;12.70;3.92;;;10.80;99.90;;;;;;4969516;29;20058;-94
2021/10/24 11:37:47;;;;;;;8.75;4.80;;;10.80;99.90;;;;;;4987570;28;20050;-96
2021/10/24 11:40:23;;;;;;;12.18;3.53;;;10.80;99.90;;;;;;4970570;29;20031;-96
2021/10/24 11:43:20;;;;;;;15.93;3.95;;;10.80;99.90;;;;;;4971354;28;20035;-95
2021/10/24 11:46:04;;;;;;;14.93;3.58;;;10.80;99.90;;;;;;4972654;29;20031;-95
2021/10/24 11:48:32;;;;;;;14.32;5.45;;;10.80;99.90;;;;;;4972934;29;20051;-96
2021/10/24 11:51:07;;;;;;;7.25;3.45;;;10.90;99.90;;;;;;4973969;28;20481;-96
2021/10/24 11:53:44;;;;;;;9.32;3.30;;;10.90;99.90;;;;;;4972884;29;20434;-96
2021/10/24 11:56:39;;;;;;;11.02;3.75;;;10.90;99.90;;;;;;4969941;29;20031;-96
2021/10/24 12:01:48;;;;;;;12.77;3.28;;;11.00;99.90;;;;;;4971312;29;20087;-96
2021/10/24 12:04:23;;;;;;;9.98;3.38;;;11.00;99.90;;;;;;4974816;28;20043;-96
2021/10/24 12:06:58;;;;;;;9.38;3.42;;;11.00;99.90;;;;;;4957477;29;20042;-94
2021/10/24 12:09:43;;;;;;;6.18;2.20;;;11.10;99.90;;;;;;4970873;29;20035;-95
2021/10/24 12:12:23;;;;;;;9.73;3.35;;;11.10;99.90;;;;;;4971484;28;20035;-95
2021/10/24 12:14:59;;;;;;;9.23;2.33;;;11.10;99.90;;;;;;4973596;29;20083;-96
2021/10/24 12:17:27;;;;;;;9.75;2.47;;;11.10;99.90;;;;;;4974369;28;20043;-96
2021/10/24 12:20:28;;;;;;;6.78;2.75;;;11.10;99.90;;;;;;4974232;29;20059;-96
2021/10/24 12:22:57;;;;;;;8.48;3.03;;;11.10;99.90;;;;;;4952627;29;20039;-95
2021/10/24 12:25:39;;;;;;;5.68;2.17;;;11.10;99.90;;;;;;4967949;29;20039;-95
2021/10/24 12:28:41;;;;;;;7.38;2.70;;;11.10;99.90;;;;;;4970218;29;20019;-95
2021/10/24 12:31:25;;;;;;;6.15;2.72;;;11.10;99.90;;;;;;4968015;29;20124;-95
2021/10/24 12:33:51;;;;;;;5.75;3.30;;;11.10;99.90;;;;;;4971883;29;20038;-96
2021/10/24 12:36:35;;;;;;;7.00;2.60;;;11.10;99.90;;;;;;4970588;28;20059;-95
2021/10/24 12:39:20;;;;;;;12.45;3.17;;;11.10;99.90;;;;;;4970257;28;20043;-94
2021/10/24 12:41:47;;;;;;;7.70;3.50;;;11.10;99.90;;;;;;4975791;28;20039;-95
2021/10/24 12:44:32;;;;;;;7.10;3.17;;;11.10;99.90;;;;;;4972684;28;20027;-96
2021/10/24 12:47:00;;;;;;;10.52;3.55;;;11.20;99.90;;;;;;4970788;29;20034;-96
2021/10/24 12:49:32;;;;;;;10.10;3.45;;;11.20;99.90;;;;;;4970214;29;20049;-96
2021/10/24 12:52:15;;;;;;;7.82;3.40;;;11.20;99.90;;;;;;4967901;29;20122;-95
2021/10/24 12:54:44;;;;;;;6.82;3.40;;;11.20;99.90;;;;;;4969800;29;20090;-95
2021/10/24 12:57:10;;;;;;;7.15;2.90;;;11.30;99.90;;;;;;4971841;29;20067;-96
2021/10/24 12:59:36;;;;;;;7.80;4.13;;;11.30;99.90;;;;;;4969789;29;20032;-96
2021/10/24 13:02:10;;;;;;;9.07;3.30;;;11.30;99.90;;;;;;4954613;29;20038;-96
2021/10/24 13:04:46;;;;;;;8.95;3.28;;;11.40;99.90;;;;;;4971501;28;20027;-96
2021/10/24 13:07:12;;;;;;;11.88;3.47;;;11.40;99.90;;;;;;4969925;29;20046;-95
2021/10/24 13:09:44;;;;;;;10.55;4.32;;;11.40;99.90;;;;;;4971133;29;20027;-96
2021/10/24 13:12:15;;;;;;;6.85;3.38;;;11.40;99.90;;;;;;4971346;29;20036;-95
2021/10/24 13:14:41;;;;;;;7.28;1.83;;;11.40;99.90;;;;;;4970066;29;20120;-96
2021/10/24 13:17:12;;;;;;;8.88;2.80;;;11.50;99.90;;;;;;4972124;29;20086;-95
2021/10/24 13:24:58;;;;;;;8.60;2.88;;;11.50;99.90;;;;;;4991139;28;20579;-94
2021/10/24 13:27:23;;;;;;;7.78;2.88;;;11.50;99.90;;;;;;4987364;28;20042;-95
2021/10/24 13:29:51;;;;;;;7.63;2.55;;;11.50;99.90;;;;;;4989404;28;20027;-96
2021/10/24 13:32:17;;;;;;;9.93;2.80;;;11.40;99.90;;;;;;4988312;28;20054;-94
2021/10/24 13:34:43;;;;;;;6.38;3.17;;;11.40;99.90;;;;;;4990069;28;20054;-94
2021/10/24 13:37:08;;;;;;;15.77;5.05;;;11.50;99.90;;;;;;4986491;28;20039;-95
2021/10/24 13:39:34;;;;;;;10.30;4.43;;;11.50;99.90;;;;;;4971544;28;20480;-95
2021/10/24 13:42:01;;;;;;;17.52;5.68;;;11.50;99.90;;;;;;4988450;28;20034;-95
2021/10/24 13:44:26;;;;;;;10.25;3.70;;;11.50;99.90;;;;;;4988923;28;20029;-96
2021/10/24 13:46:52;;;;;;;14.10;3.65;;;11.50;99.90;;;;;;4989230;28;20105;-95
2021/10/24 13:49:18;;;;;;;12.05;4.50;;;11.50;99.90;;;;;;4992334;28;20026;-96
2021/10/24 13:51:44;;;;;;;12.15;3.38;;;11.50;99.90;;;;;;4995626;28;20042;-96
2021/10/24 13:54:12;;;;;;;12.38;3.78;;;11.50;99.90;;;;;;4989688;28;20027;-96
2021/10/24 13:56:40;;;;;;;8.48;3.10;;;11.50;99.90;;;;;;4957348;28;20062;-96
2021/10/24 13:59:06;;;;;;;9.57;3.63;;;11.50;99.90;;;;;;4971966;28;20539;-96
2021/10/24 14:01:32;;;;;;;8.35;3.83;;;11.40;99.90;;;;;;4990435;28;20344;-96
2021/10/24 14:03:59;;;;;;;8.55;4.13;;;11.40;99.90;;;;;;4971558;28;20046;-96
2021/10/24 14:06:26;;;;;;;9.13;3.78;;;11.40;99.90;;;;;;4987983;28;20119;-96
2021/10/24 14:08:53;;;;;;;9.02;2.97;;;11.40;99.90;;;;;;4985396;28;20189;-94
2021/10/24 14:11:23;;;;;;;9.63;4.03;;;11.40;99.90;;;;;;4986171;28;20035;-94
2021/10/24 14:13:49;;;;;;;10.40;3.30;;;11.40;99.90;;;;;;4983231;28;20035;-95
2021/10/24 14:16:15;;;;;;;9.38;3.80;;;11.30;99.90;;;;;;4965241;28;20381;-93
2021/10/24 14:18:41;;;;;;;9.52;3.28;;;11.40;99.90;;;;;;4979696;28;20031;-94
2021/10/24 14:21:07;;;;;;;11.60;3.55;;;11.30;99.90;;;;;;4963525;28;20023;-94
2021/10/24 14:23:33;;;;;;;9.40;3.70;;;11.30;99.90;;;;;;4977713;28;20054;-94
2021/10/24 14:26:00;;;;;;;13.63;3.75;;;11.30;99.90;;;;;;4961120;28;20022;-93
2021/10/24 14:28:26;;;;;;;9.55;3.47;;;11.30;99.90;;;;;;4977070;28;20035;-92
2021/10/24 14:30:52;;;;;;;10.13;3.17;;;11.30;99.90;;;;;;4960536;28;20033;-93
2021/10/24 14:33:17;;;;;;;7.78;3.70;;;11.30;99.90;;;;;;4976671;28;20033;-93
2021/10/24 14:35:43;;;;;;;14.55;4.20;;;11.30;99.90;;;;;;4975640;28;20030;-93
2021/10/24 14:38:09;;;;;;;8.38;3.05;;;11.30;99.90;;;;;;4960412;28;20038;-93
2021/10/24 14:40:35;;;;;;;6.05;3.22;;;11.30;99.90;;;;;;4976773;28;20074;-93
2021/10/24 14:43:02;;;;;;;8.45;3.42;;;11.30;99.90;;;;;;4976578;28;20507;-93
2021/10/24 14:45:28;;;;;;;11.52;3.70;;;11.30;99.90;;;;;;4976602;28;20031;-93
2021/10/24 14:47:54;;;;;;;6.82;3.67;;;11.30;99.90;;;;;;4977765;28;20357;-93
2021/10/24 14:50:20;;;;;;;11.10;3.38;;;11.30;99.90;;;;;;4988827;28;20015;-93
2021/10/24 14:52:47;;;;;;;13.43;3.38;;;11.20;99.90;;;;;;4984860;28;20496;-93
2021/10/24 14:55:13;;;;;;;9.52;3.95;;;11.30;99.90;;;;;;4977060;28;20115;-94
2021/10/24 14:57:39;;;;;;;11.68;3.97;;;11.30;99.90;;;;;;4976553;28;20125;-93
2021/10/24 15:00:06;;;;;;;7.18;3.42;;;11.30;99.90;;;;;;4976228;28;20119;-93
2021/10/24 15:02:32;;;;;;;8.40;3.95;;;11.30;99.90;;;;;;4960689;28;20046;-93
2021/10/24 15:04:58;;;;;;;9.90;3.70;;;11.30;99.90;;;;;;4960728;28;20031;-93
2021/10/24 15:07:23;;;;;;;21.95;5.95;;;11.40;99.90;;;;;;4960294;28;20488;-92
2021/10/24 15:09:49;;;;;;;8.30;4.20;;;11.40;99.90;;;;;;4976345;28;20113;-93
2021/10/24 15:12:15;;;;;;;8.77;3.97;;;11.40;99.90;;;;;;4960346;28;20033;-94
2021/10/24 15:14:46;;;;;;;7.22;3.58;;;11.40;99.90;;;;;;4960823;28;20027;-93
2021/10/24 15:17:14;;;;;;;12.32;4.22;;;11.40;99.90;;;;;;4976378;28;20039;-93
2021/10/24 15:22:21;;;;;;;10.45;3.95;;;11.50;99.90;;;;;;4978000;28;20074;-94
2021/10/24 15:24:47;;;;;;;9.98;4.00;;;11.50;99.90;;;;;;4976252;28;20126;-93
2021/10/24 15:27:13;;;;;;;12.63;4.97;;;11.50;99.90;;;;;;4961127;28;20065;-93
2021/10/24 15:29:39;;;;;;;11.30;4.00;;;11.50;99.90;;;;;;4976757;28;20023;-94
2021/10/24 15:32:06;;;;;;;7.00;3.85;;;11.50;99.90;;;;;;4960497;28;20034;-94
2021/10/24 15:34:32;;;;;;;8.90;4.70;;;11.50;99.90;;;;;;4960603;28;20035;-93
2021/10/24 15:36:58;;;;;;;11.75;3.70;;;11.60;99.90;;;;;;4976257;28;20029;-96
2021/10/24 15:39:24;;;;;;;11.23;4.05;;;11.70;99.90;;;;;;4961077;28;20555;-95
2021/10/24 15:41:50;;;;;;;11.20;3.28;;;11.70;99.90;;;;;;4980662;28;20022;-94
2021/10/24 15:44:16;;;;;;;18.35;6.68;;;11.80;99.90;;;;;;4962452;28;20033;-91
2021/10/24 15:46:42;;;;;;;10.88;3.97;;;11.90;99.90;;;;;;4980109;28;20034;-94
2021/10/24 15:49:12;;;;;;;10.50;3.95;;;11.90;99.90;;;;;;4962511;28;20093;-93
2021/10/24 15:51:42;;;;;;;11.63;3.33;;;11.90;99.90;;;;;;4977561;28;20027;-94
2021/10/24 15:54:08;;;;;;;5.32;3.33;;;11.90;99.90;;;;;;4964437;28;20031;-94
2021/10/24 15:56:33;;;;;;;6.82;3.03;;;11.90;99.90;;;;;;4963886;28;20045;-94
2021/10/24 15:59:00;;;;;;;13.10;3.85;;;11.90;99.90;;;;;;4977370;28;20027;-93
2021/10/24 16:01:25;;;;;;;6.30;3.33;;;11.90;99.90;;;;;;4962220;28;20061;-93
2021/10/24 16:03:51;;;;;;;5.18;3.60;;;11.90;99.90;;;;;;4983715;28;20023;-94
2021/10/24 16:06:17;;;;;;;8.25;3.33;;;11.90;99.90;;;;;;4972929;28;20026;-93
2021/10/24 16:08:43;;;;;;;11.27;3.50;;;11.90;99.90;;;;;;4985826;28;20033;-94
2021/10/24 16:11:11;;;;;;;8.07;2.78;;;12.00;99.90;;;;;;4982661;28;20027;-94
2021/10/24 16:13:36;;;;;;;7.68;3.88;;;11.90;99.90;;;;;;4980862;28;20030;-95
2021/10/24 16:16:04;;;;;;;10.52;3.00;;;12.00;99.90;;;;;;4983374;28;20058;-92
2021/10/24 16:18:29;;;;;;;15.02;4.65;;;12.00;99.90;;;;;;4978403;28;20081;-92
2021/10/24 16:20:56;;;;;;;5.93;2.78;;;12.00;99.90;;;;;;4984933;28;20026;-95
2021/10/24 16:23:24;;;;;;;9.48;3.33;;;12.00;99.90;;;;;;4983099;28;20043;-94
2021/10/24 16:25:50;;;;;;;8.68;3.40;;;12.00;99.90;;;;;;4964845;28;20098;-94
2021/10/24 16:28:16;;;;;;;9.25;4.70;;;12.00;99.90;;;;;;4964440;28;20031;-95
2021/10/24 16:30:43;;;;;;;9.80;3.60;;;12.00;99.90;;;;;;4990276;28;20039;-95
2021/10/24 16:33:10;;;;;;;7.53;2.65;;;12.00;99.90;;;;;;4976750;28;20090;-94
2021/10/24 16:35:37;;;;;;;8.48;3.58;;;12.00;99.90;;;;;;4974782;28;20070;-95
2021/10/24 16:38:05;;;;;;;9.75;2.88;;;12.00;99.90;;;;;;4989013;28;20050;-94
2021/10/24 16:40:31;;;;;;;10.23;3.47;;;12.00;99.90;;;;;;4991210;28;20030;-94
2021/10/24 16:42:57;;;;;;;5.60;2.72;;;12.00;99.90;;;;;;4993699;28;20042;-95
2021/10/24 16:45:26;;;;;;;6.85;2.95;;;12.00;99.90;;;;;;4994467;28;20030;-94
2021/10/24 16:47:53;;;;;;;7.20;2.97;;;12.00;99.90;;;;;;4970149;28;20026;-95
2021/10/24 16:50:23;;;;;;;12.18;3.97;;;12.00;99.90;;;;;;4967588;28;20034;-94
2021/10/24 16:52:51;;;;;;;13.63;4.97;;;12.00;99.90;;;;;;4985199;28;20027;-95
2021/10/24 16:55:20;;;;;;;10.70;3.92;;;12.00;99.90;;;;;;4986743;28;20033;-93
2021/10/24 16:57:46;;;;;;;10.05;4.65;;;11.90;99.90;;;;;;4983857;28;20484;-95
2021/10/24 17:00:13;;;;;;;8.02;3.47;;;12.00;99.90;;;;;;4981941;28;20031;-95
2021/10/24 17:02:40;;;;;;;11.25;3.22;;;12.00;99.90;;;;;;4981924;28;20030;-94
2021/10/24 17:05:07;;;;;;;5.95;3.40;;;12.00;99.90;;;;;;4966528;28;20030;-94
2021/10/24 17:07:34;;;;;;;7.82;3.75;;;12.00;99.90;;;;;;4981676;28;20046;-94
2021/10/24 17:10:02;;;;;;;9.40;5.05;;;12.00;99.90;;;;;;4981715;28;20081;-94
2021/10/24 17:12:28;;;;;;;6.95;3.50;;;11.90;99.90;;;;;;4982278;28;20071;-96
2021/10/24 17:14:55;;;;;;;9.65;3.78;;;11.90;99.90;;;;;;4954059;28;20042;-95
2021/10/24 17:17:21;;;;;;;9.32;3.70;;;11.90;99.90;;;;;;4967664;28;20035;-94
2021/10/24 17:19:47;;;;;;;8.02;3.90;;;11.90;99.90;;;;;;4977726;28;20031;-95
2021/10/24 17:22:18;;;;;;;10.85;4.30;;;11.90;99.90;;;;;;4981856;28;20027;-94
2021/10/24 17:24:44;;;;;;;7.68;3.90;;;11.90;99.90;;;;;;4966361;28;20046;-95
2021/10/24 17:27:11;;;;;;;13.65;4.32;;;11.90;99.90;;;;;;4964021;28;20055;-93
2021/10/24 17:29:37;;;;;;;8.10;3.20;;;11.90;99.90;;;;;;4965944;28;20046;-94
2021/10/24 17:32:04;;;;;;;17.50;5.13;;;11.90;99.90;;;;;;4962859;28;20030;-94
2021/10/24 17:34:31;;;;;;;6.22;3.65;;;11.90;99.90;;;;;;4963976;28;20027;-93
2021/10/24 17:36:57;;;;;;;8.48;3.20;;;11.90;99.90;;;;;;4963268;28;20074;-94
2021/10/24 17:39:23;;;;;;;11.98;4.28;;;11.90;99.90;;;;;;4962881;28;20108;-93
2021/10/24 17:41:48;;;;;;;8.18;3.90;;;11.90;99.90;;;;;;4964371;28;20027;-93
2021/10/24 17:44:14;;;;;;;9.75;3.72;;;11.90;99.90;;;;;;4964268;28;20057;-94
2021/10/24 17:46:40;;;;;;;10.20;4.13;;;11.90;99.90;;;;;;4969711;28;20042;-92
2021/10/24 17:49:06;;;;;;;9.82;4.20;;;11.90;99.90;;;;;;4965194;28;20107;-91
2021/10/24 17:51:32;;;;;;;11.98;4.85;;;11.90;99.90;;;;;;4965420;28;20392;-92
2021/10/24 17:53:59;;;;;;;8.23;3.60;;;11.90;99.90;;;;;;4950256;28;20027;-95
2021/10/24 17:56:25;;;;;;;8.43;3.45;;;11.90;99.90;;;;;;4968839;28;20118;-95
2021/10/24 17:58:53;;;;;;;8.25;3.53;;;11.90;99.90;;;;;;4965399;28;20089;-94
2021/10/24 18:01:23;;;;;;;10.68;4.70;;;11.90;99.90;;;;;;4950899;28;20039;-94
2021/10/24 18:03:52;;;;;;;11.20;4.00;;;11.90;99.90;;;;;;4965433;28;20058;-95
2021/10/24 18:06:18;;;;;;;10.85;3.63;;;11.90;99.90;;;;;;4963165;28;20085;-93
2021/10/24 18:08:44;;;;;;;7.43;2.92;;;11.90;99.90;;;;;;4964954;28;20034;-93
2021/10/24 18:11:10;;;;;;;6.82;3.75;;;12.00;99.90;;;;;;4978848;28;20591;-92
2021/10/24 18:13:39;;;;;;;11.32;3.83;;;12.00;99.90;;;;;;4969609;28;20034;-94
2021/10/24 18:16:07;;;;;;;5.55;3.10;;;12.00;99.90;;;;;;4967894;28;20027;-95
2021/10/24 18:18:34;;;;;;;6.68;3.10;;;12.00;99.90;;;;;;4968848;28;20070;-94
2021/10/24 18:20:59;;;;;;;7.38;3.20;;;12.00;99.90;;;;;;4965318;28;20480;-94
2021/10/24 18:23:25;;;;;;;9.02;3.17;;;12.00;99.90;;;;;;4963759;28;20251;-93
2021/10/24 18:25:51;;;;;;;7.97;3.30;;;12.00;99.90;;;;;;4964172;28;20023;-93
2021/10/24 18:28:18;;;;;;;6.78;2.60;;;12.00;99.90;;;;;;4961666;28;20039;-91
2021/10/24 18:30:45;;;;;;;2.95;1.85;;;12.00;99.90;;;;;;4963096;28;20090;-94
2021/10/24 18:33:11;;;;;;;5.05;1.80;;;12.00;99.90;;;;;;4962452;28;20027;-94
2021/10/24 18:35:37;;;;;;;4.10;1.65;;;12.00;99.90;;;;;;4962394;28;20034;-93
2021/10/24 18:38:03;;;;;;;4.18;2.33;;;12.00;99.90;;;;;;4961225;28;20074;-94
2021/10/24 18:40:29;;;;;;;6.57;2.70;;;11.90;99.90;;;;;;4960864;28;20033;-95
2021/10/24 18:42:56;;;;;;;4.03;2.47;;;11.90;99.90;;;;;;4960895;28;20054;-94
2021/10/24 18:45:22;;;;;;;7.28;4.10;;;11.90;99.90;;;;;;4961114;28;20019;-94
2021/10/24 18:47:48;;;;;;;9.00;4.30;;;11.90;99.90;;;;;;4961136;28;20503;-94
2021/10/24 18:50:17;;;;;;;8.65;4.10;;;11.80;99.90;;;;;;4960911;28;20063;-95
2021/10/24 18:52:42;;;;;;;9.45;4.18;;;11.80;99.90;;;;;;4962145;28;20056;-96
2021/10/24 18:55:09;;;;;;;9.63;4.57;;;11.80;99.90;;;;;;4961355;28;20035;-94
2021/10/24 18:57:35;;;;;;;9.32;4.65;;;11.80;99.90;;;;;;4961846;28;20160;-94
2021/10/24 19:00:03;;;;;;;9.73;4.50;;;11.70;99.90;;;;;;4961182;28;20042;-94
2021/10/24 19:02:29;;;;;;;13.50;4.55;;;11.70;99.90;;;;;;4960421;28;20034;-93
2021/10/24 19:04:55;;;;;;;11.15;3.80;;;11.70;99.90;;;;;;4963370;28;20409;-94
2021/10/24 19:07:21;;;;;;;9.50;4.03;;;11.70;99.90;;;;;;4963657;28;20033;-95
2021/10/24 19:09:47;;;;;;;11.52;4.28;;;11.70;99.90;;;;;;4962857;28;20023;-95
2021/10/24 19:12:16;;;;;;;15.35;4.65;;;11.70;99.90;;;;;;4964484;28;20035;-95
2021/10/24 19:14:44;;;;;;;8.02;4.05;;;11.70;99.90;;;;;;4963398;28;20023;-95
2021/10/24 19:17:10;;;;;;;11.40;4.18;;;11.60;99.90;;;;;;4964791;28;20031;-94
2021/10/24 19:19:36;;;;;;;10.45;4.50;;;11.60;99.90;;;;;;4961199;28;20027;-94
2021/10/24 19:22:01;;;;;;;11.00;3.85;;;11.60;99.90;;;;;;4960431;28;20035;-93
2021/10/24 19:24:27;;;;;;;12.88;3.50;;;11.70;99.90;;;;;;4967746;28;20408;-95
2021/10/24 19:26:56;;;;;;;13.80;3.60;;;11.70;99.90;;;;;;4966096;28;20031;-95
2021/10/24 19:29:36;;;;;;;9.52;3.92;;;11.60;99.90;;;;;;4967929;28;20051;-96
2021/10/24 19:32:02;;;;;;;11.55;3.60;;;11.60;99.90;;;;;;4965546;28;20046;-95
2021/10/24 19:34:30;;;;;;;16.13;3.58;;;11.60;99.90;;;;;;4967218;28;20035;-96
2021/10/24 19:36:55;;;;;;;10.60;3.42;;;11.60;99.90;;;;;;4965922;28;20027;-96
2021/10/24 19:39:22;;;;;;;16.30;4.50;;;11.60;99.90;;;;;;4965421;28;20038;-95
2021/10/24 19:41:50;;;;;;;12.77;3.42;;;11.70;99.90;;;;;;4983108;28;20112;-94
2021/10/24 19:44:15;;;;;;;9.98;3.63;;;11.70;99.90;;;;;;4968118;28;20030;-94
2021/10/24 19:46:43;;;;;;;12.57;3.40;;;11.70;99.90;;;;;;4965971;28;20126;-96
2021/10/24 19:49:09;;;;;;;20.13;5.00;;;11.70;99.90;;;;;;4970613;28;20040;-96
2021/10/24 19:51:37;;;;;;;11.93;3.42;;;11.70;99.90;;;;;;4975800;28;20034;-96
2021/10/24 19:54:06;;;;;;;12.48;3.15;;;11.70;99.90;;;;;;4967540;28;20078;-95
2021/10/24 19:56:36;;;;;;;11.80;3.10;;;11.70;99.90;;;;;;4969477;28;20039;-96
2021/10/24 19:59:02;;;;;;;11.77;2.97;;;11.70;99.90;;;;;;4968118;28;20485;-96
2021/10/24 20:01:33;;;;;;;7.63;3.30;;;11.70;99.90;;;;;;4968580;28;20031;-95
2021/10/24 20:04:06;;;;;;;11.32;3.40;;;11.80;99.90;;;;;;4971432;28;20099;-96
2021/10/24 20:06:49;;;;;;;17.30;4.22;;;11.80;99.90;;;;;;4958531;28;20253;-95
2021/10/24 20:09:15;;;;;;;18.17;3.40;;;11.80;99.90;;;;;;4967414;28;20047;-94
2021/10/24 20:11:41;;;;;;;10.30;2.50;;;11.80;99.90;;;;;;4949796;28;20034;-93
2021/10/24 20:14:09;;;;;;;11.45;2.53;;;11.80;99.90;;;;;;4967262;28;20392;-94
2021/10/24 20:16:43;;;;;;;12.15;2.85;;;11.80;99.90;;;;;;4974137;28;20030;-95
2021/10/24 20:19:10;;;;;;;9.73;2.80;;;11.80;99.90;;;;;;4985565;28;20081;-95
2021/10/24 20:21:44;;;;;;;11.10;2.88;;;11.90;99.90;;;;;;4970616;28;20026;-96
2021/10/24 20:24:10;;;;;;;19.05;3.17;;;11.80;99.90;;;;;;4970940;28;20050;-95
2021/10/24 20:26:36;;;;;;;8.43;2.60;;;11.80;99.90;;;;;;4973152;28;20050;-94
2021/10/24 20:29:02;;;;;;;12.20;2.58;;;11.80;99.90;;;;;;4973074;28;20063;-96
2021/10/24 20:31:27;;;;;;;12.23;2.83;;;11.80;99.90;;;;;;4970803;28;20023;-95
2021/10/24 20:34:01;;;;;;;9.30;2.72;;;11.80;99.90;;;;;;4971888;28;20023;-96
2021/10/24 20:36:39;;;;;;;15.68;2.92;;;11.80;99.90;;;;;;4978138;28;20038;-96
2021/10/24 20:39:16;;;;;;;10.65;3.15;;;11.80;99.90;;;;;;4976312;28;20152;-96
2021/10/24 20:48:43;;;;;;;13.25;3.05;;;11.70;99.90;;;;;;4996764;28;20041;-96
2021/10/24 20:51:22;;;;;;;13.30;2.22;;;11.70;99.90;;;;;;4979932;28;20026;-96
2021/10/24 20:53:51;;;;;;;10.00;3.10;;;11.70;99.90;;;;;;4981626;28;20062;-96
2021/10/24 21:04:46;;;;;;;9.40;3.40;;;11.60;99.90;;;;;;5011128;23;20068;-94